sensor_id;sensor_type;location;lat;lon;timestamp;temperature;humidity
831;DHT22;397;50.564;7.272;2022-10-19T00:01:09;12.20;99.90
831;DHT22;397;50.564;7.272;2022-10-19T00:03:36;12.20;99.90
831;DHT22;397;50.564;7.272;2022-10-19T00:06:12;12.30;99.90
831;DHT22;397;50.564;7.272;2022-10-19T00:08:40;12.50;99.90
831;DHT22;397;50.564;7.272;2022-10-19T00:11:08;12.50;99.90
831;DHT22;397;50.564;7.272;2022-10-19T00:13:36;12.60;99.90
831;DHT22;397;50.564;7.272;2022-10-19T00:16:12;12.70;99.90
831;DHT22;397;50.564;7.272;2022-10-19T00:18:41;12.40;99.90
831;DHT22;397;50.564;7.272;2022-10-19T00:21:14;12.70;99.90
831;DHT22;397;50.564;7.272;2022-10-19T00:23:42;12.60;99.90
831;DHT22;397;50.564;7.272;2022-10-19T00:26:10;12.40;99.90
831;DHT22;397;50.564;7.272;2022-10-19T00:28:38;12.20;99.90
831;DHT22;397;50.564;7.272;2022-10-19T00:31:13;12.40;99.90
831;DHT22;397;50.564;7.272;2022-10-19T00:33:37;12.50;99.90
831;DHT22;397;50.564;7.272;2022-10-19T00:36:11;12.50;99.90
831;DHT22;397;50.564;7.272;2022-10-19T00:38:35;12.50;99.90
831;DHT22;397;50.564;7.272;2022-10-19T00:41:02;12.40;99.90
831;DHT22;397;50.564;7.272;2022-10-19T00:43:30;12.60;99.90
831;DHT22;397;50.564;7.272;2022-10-19T00:45:58;12.60;99.90
831;DHT22;397;50.564;7.272;2022-10-19T00:48:28;12.30;99.90
831;DHT22;397;50.564;7.272;2022-10-19T00:50:57;12.20;99.90
831;DHT22;397;50.564;7.272;2022-10-19T00:53:28;12.30;99.90
831;DHT22;397;50.564;7.272;2022-10-19T00:55:57;12.20;99.90
831;DHT22;397;50.564;7.272;2022-10-19T00:58:27;12.00;99.90
831;DHT22;397;50.564;7.272;2022-10-19T01:00:54;12.20;99.90
831;DHT22;397;50.564;7.272;2022-10-19T01:03:22;12.00;99.90
831;DHT22;397;50.564;7.272;2022-10-19T01:05:49;11.90;99.90
831;DHT22;397;50.564;7.272;2022-10-19T01:08:17;12.10;99.90
831;DHT22;397;50.564;7.272;2022-10-19T01:11:03;12.20;99.90
831;DHT22;397;50.564;7.272;2022-10-19T01:13:51;12.00;99.90
831;DHT22;397;50.564;7.272;2022-10-19T01:16:30;12.10;99.90
831;DHT22;397;50.564;7.272;2022-10-19T01:19:21;12.00;99.90
831;DHT22;397;50.564;7.272;2022-10-19T01:21:45;11.80;99.90
831;DHT22;397;50.564;7.272;2022-10-19T01:24:34;11.90;99.90
831;DHT22;397;50.564;7.272;2022-10-19T01:30:00;12.10;99.90
831;DHT22;397;50.564;7.272;2022-10-19T01:33:09;12.10;99.90
831;DHT22;397;50.564;7.272;2022-10-19T01:35:54;11.90;99.90
831;DHT22;397;50.564;7.272;2022-10-19T01:38:30;11.90;99.90
831;DHT22;397;50.564;7.272;2022-10-19T01:43:54;12.30;99.90
831;DHT22;397;50.564;7.272;2022-10-19T01:46:38;12.20;99.90
831;DHT22;397;50.564;7.272;2022-10-19T01:48:57;11.90;99.90
831;DHT22;397;50.564;7.272;2022-10-19T01:51:28;11.80;99.90
831;DHT22;397;50.564;7.272;2022-10-19T01:53:57;11.70;99.90
831;DHT22;397;50.564;7.272;2022-10-19T01:56:26;11.70;99.90
831;DHT22;397;50.564;7.272;2022-10-19T01:58:57;11.40;99.90
831;DHT22;397;50.564;7.272;2022-10-19T02:01:27;11.50;99.90
831;DHT22;397;50.564;7.272;2022-10-19T02:03:56;11.40;99.90
831;DHT22;397;50.564;7.272;2022-10-19T02:06:24;11.40;99.90
831;DHT22;397;50.564;7.272;2022-10-19T02:08:53;11.60;99.90
831;DHT22;397;50.564;7.272;2022-10-19T02:11:21;11.70;99.90
831;DHT22;397;50.564;7.272;2022-10-19T02:14:03;11.90;99.90
831;DHT22;397;50.564;7.272;2022-10-19T02:16:26;12.00;99.90
831;DHT22;397;50.564;7.272;2022-10-19T02:18:51;12.20;99.90
831;DHT22;397;50.564;7.272;2022-10-19T02:21:19;12.20;99.90
831;DHT22;397;50.564;7.272;2022-10-19T02:23:47;12.20;99.90
831;DHT22;397;50.564;7.272;2022-10-19T02:26:14;12.20;99.90
831;DHT22;397;50.564;7.272;2022-10-19T02:28:42;12.20;99.90
831;DHT22;397;50.564;7.272;2022-10-19T02:31:10;12.10;99.90
831;DHT22;397;50.564;7.272;2022-10-19T02:33:38;12.20;99.90
831;DHT22;397;50.564;7.272;2022-10-19T02:36:06;12.00;99.90
831;DHT22;397;50.564;7.272;2022-10-19T02:38:34;12.00;99.90
831;DHT22;397;50.564;7.272;2022-10-19T02:43:53;12.20;99.90
831;DHT22;397;50.564;7.272;2022-10-19T02:46:33;12.30;99.90
831;DHT22;397;50.564;7.272;2022-10-19T02:48:57;12.20;99.90
831;DHT22;397;50.564;7.272;2022-10-19T02:51:34;12.10;99.90
831;DHT22;397;50.564;7.272;2022-10-19T02:54:03;12.10;99.90
831;DHT22;397;50.564;7.272;2022-10-19T02:56:31;12.10;99.90
831;DHT22;397;50.564;7.272;2022-10-19T02:58:59;12.20;99.90
831;DHT22;397;50.564;7.272;2022-10-19T03:01:27;12.20;99.90
831;DHT22;397;50.564;7.272;2022-10-19T03:03:54;12.30;99.90
831;DHT22;397;50.564;7.272;2022-10-19T03:06:22;12.10;99.90
831;DHT22;397;50.564;7.272;2022-10-19T03:08:50;11.90;99.90
831;DHT22;397;50.564;7.272;2022-10-19T03:11:17;11.60;99.90
831;DHT22;397;50.564;7.272;2022-10-19T03:13:45;11.40;99.90
831;DHT22;397;50.564;7.272;2022-10-19T03:16:13;11.30;99.90
831;DHT22;397;50.564;7.272;2022-10-19T03:18:40;11.40;99.90
831;DHT22;397;50.564;7.272;2022-10-19T03:21:10;11.50;99.90
831;DHT22;397;50.564;7.272;2022-10-19T03:23:39;11.70;99.90
831;DHT22;397;50.564;7.272;2022-10-19T03:26:09;11.90;99.90
831;DHT22;397;50.564;7.272;2022-10-19T03:28:37;12.00;99.90
831;DHT22;397;50.564;7.272;2022-10-19T03:31:04;12.10;99.90
831;DHT22;397;50.564;7.272;2022-10-19T03:33:32;11.90;99.90
831;DHT22;397;50.564;7.272;2022-10-19T03:36:16;11.40;99.90
831;DHT22;397;50.564;7.272;2022-10-19T03:38:44;11.20;99.90
831;DHT22;397;50.564;7.272;2022-10-19T03:41:12;11.20;99.90
831;DHT22;397;50.564;7.272;2022-10-19T03:43:39;10.90;99.90
831;DHT22;397;50.564;7.272;2022-10-19T03:46:07;11.00;99.90
831;DHT22;397;50.564;7.272;2022-10-19T03:48:35;11.00;99.90
831;DHT22;397;50.564;7.272;2022-10-19T03:51:06;11.00;99.90
831;DHT22;397;50.564;7.272;2022-10-19T03:53:33;11.00;99.90
831;DHT22;397;50.564;7.272;2022-10-19T03:56:03;10.80;99.90
831;DHT22;397;50.564;7.272;2022-10-19T03:58:32;10.70;99.90
831;DHT22;397;50.564;7.272;2022-10-19T04:01:05;10.90;99.90
831;DHT22;397;50.564;7.272;2022-10-19T04:03:30;10.80;99.90
831;DHT22;397;50.564;7.272;2022-10-19T04:06:06;10.90;99.90
831;DHT22;397;50.564;7.272;2022-10-19T04:08:30;10.90;99.90
831;DHT22;397;50.564;7.272;2022-10-19T04:11:00;10.90;99.90
831;DHT22;397;50.564;7.272;2022-10-19T04:13:29;10.80;99.90
831;DHT22;397;50.564;7.272;2022-10-19T04:15:56;10.70;99.90
831;DHT22;397;50.564;7.272;2022-10-19T04:18:24;10.80;99.90
831;DHT22;397;50.564;7.272;2022-10-19T04:21:00;10.90;99.90
831;DHT22;397;50.564;7.272;2022-10-19T04:23:31;10.80;99.90
831;DHT22;397;50.564;7.272;2022-10-19T04:26:04;10.70;99.90
831;DHT22;397;50.564;7.272;2022-10-19T04:28:32;10.70;99.90
831;DHT22;397;50.564;7.272;2022-10-19T04:31:04;10.80;99.90
831;DHT22;397;50.564;7.272;2022-10-19T04:33:32;10.80;99.90
831;DHT22;397;50.564;7.272;2022-10-19T04:36:02;10.60;99.90
831;DHT22;397;50.564;7.272;2022-10-19T04:38:30;10.60;99.90
831;DHT22;397;50.564;7.272;2022-10-19T04:41:11;10.80;99.90
831;DHT22;397;50.564;7.272;2022-10-19T04:43:40;10.90;99.90
831;DHT22;397;50.564;7.272;2022-10-19T04:46:10;10.90;99.90
831;DHT22;397;50.564;7.272;2022-10-19T04:48:39;11.00;99.90
831;DHT22;397;50.564;7.272;2022-10-19T04:51:07;10.70;99.90
831;DHT22;397;50.564;7.272;2022-10-19T04:53:37;10.60;99.90
831;DHT22;397;50.564;7.272;2022-10-19T04:56:06;10.80;99.90
831;DHT22;397;50.564;7.272;2022-10-19T04:58:34;10.80;99.90
831;DHT22;397;50.564;7.272;2022-10-19T05:01:19;10.60;99.90
831;DHT22;397;50.564;7.272;2022-10-19T05:03:47;10.90;99.90
831;DHT22;397;50.564;7.272;2022-10-19T05:06:16;10.70;99.90
831;DHT22;397;50.564;7.272;2022-10-19T05:08:44;10.40;99.90
831;DHT22;397;50.564;7.272;2022-10-19T05:11:13;10.50;99.90
831;DHT22;397;50.564;7.272;2022-10-19T05:13:42;10.40;99.90
831;DHT22;397;50.564;7.272;2022-10-19T05:16:12;10.20;99.90
831;DHT22;397;50.564;7.272;2022-10-19T05:18:40;10.00;99.90
831;DHT22;397;50.564;7.272;2022-10-19T05:21:10;10.20;99.90
831;DHT22;397;50.564;7.272;2022-10-19T05:23:38;10.10;99.90
831;DHT22;397;50.564;7.272;2022-10-19T05:26:12;10.10;99.90
831;DHT22;397;50.564;7.272;2022-10-19T05:28:37;10.10;99.90
831;DHT22;397;50.564;7.272;2022-10-19T05:31:09;10.10;99.90
831;DHT22;397;50.564;7.272;2022-10-19T05:33:38;10.10;99.90
831;DHT22;397;50.564;7.272;2022-10-19T05:36:11;10.20;99.90
831;DHT22;397;50.564;7.272;2022-10-19T05:38:38;10.30;99.90
831;DHT22;397;50.564;7.272;2022-10-19T05:41:06;10.20;99.90
831;DHT22;397;50.564;7.272;2022-10-19T05:43:33;10.20;99.90
831;DHT22;397;50.564;7.272;2022-10-19T05:46:06;10.30;99.90
831;DHT22;397;50.564;7.272;2022-10-19T05:48:34;10.10;99.90
831;DHT22;397;50.564;7.272;2022-10-19T05:51:05;10.20;99.90
831;DHT22;397;50.564;7.272;2022-10-19T05:53:34;10.20;99.90
831;DHT22;397;50.564;7.272;2022-10-19T05:56:04;10.30;99.90
831;DHT22;397;50.564;7.272;2022-10-19T05:58:32;10.30;99.90
831;DHT22;397;50.564;7.272;2022-10-19T06:01:01;10.20;99.90
831;DHT22;397;50.564;7.272;2022-10-19T06:03:29;10.20;99.90
831;DHT22;397;50.564;7.272;2022-10-19T06:05:57;10.30;99.90
831;DHT22;397;50.564;7.272;2022-10-19T06:08:25;10.30;99.90
831;DHT22;397;50.564;7.272;2022-10-19T06:10:52;10.30;99.90
831;DHT22;397;50.564;7.272;2022-10-19T06:13:21;10.10;99.90
831;DHT22;397;50.564;7.272;2022-10-19T06:15:50;10.00;99.90
831;DHT22;397;50.564;7.272;2022-10-19T06:18:17;10.10;99.90
831;DHT22;397;50.564;7.272;2022-10-19T06:20:45;10.00;99.90
831;DHT22;397;50.564;7.272;2022-10-19T06:23:12;9.90;99.90
831;DHT22;397;50.564;7.272;2022-10-19T06:25:40;9.80;99.90
831;DHT22;397;50.564;7.272;2022-10-19T06:28:07;9.90;99.90
831;DHT22;397;50.564;7.272;2022-10-19T06:30:41;10.00;99.90
831;DHT22;397;50.564;7.272;2022-10-19T06:33:09;9.90;99.90
831;DHT22;397;50.564;7.272;2022-10-19T06:35:36;10.00;99.90
831;DHT22;397;50.564;7.272;2022-10-19T06:38:04;9.90;99.90
831;DHT22;397;50.564;7.272;2022-10-19T06:40:31;10.10;99.90
831;DHT22;397;50.564;7.272;2022-10-19T06:42:59;10.00;99.90
831;DHT22;397;50.564;7.272;2022-10-19T06:45:27;10.20;99.90
831;DHT22;397;50.564;7.272;2022-10-19T06:47:54;10.00;99.90
831;DHT22;397;50.564;7.272;2022-10-19T06:50:22;10.00;99.90
831;DHT22;397;50.564;7.272;2022-10-19T06:52:49;10.00;99.90
831;DHT22;397;50.564;7.272;2022-10-19T06:55:17;10.00;99.90
831;DHT22;397;50.564;7.272;2022-10-19T06:57:44;9.90;99.90
831;DHT22;397;50.564;7.272;2022-10-19T07:00:12;9.90;99.90
831;DHT22;397;50.564;7.272;2022-10-19T07:02:40;9.90;99.90
831;DHT22;397;50.564;7.272;2022-10-19T07:05:08;10.00;99.90
831;DHT22;397;50.564;7.272;2022-10-19T07:07:36;10.00;99.90
831;DHT22;397;50.564;7.272;2022-10-19T07:10:04;10.00;99.90
831;DHT22;397;50.564;7.272;2022-10-19T07:12:32;10.00;99.90
831;DHT22;397;50.564;7.272;2022-10-19T07:14:59;10.10;99.90
831;DHT22;397;50.564;7.272;2022-10-19T07:17:27;10.20;99.90
831;DHT22;397;50.564;7.272;2022-10-19T07:19:54;10.10;99.90
831;DHT22;397;50.564;7.272;2022-10-19T07:22:22;10.10;99.90
831;DHT22;397;50.564;7.272;2022-10-19T07:24:49;10.20;99.90
831;DHT22;397;50.564;7.272;2022-10-19T07:27:17;10.30;99.90
831;DHT22;397;50.564;7.272;2022-10-19T07:29:45;10.40;99.90
831;DHT22;397;50.564;7.272;2022-10-19T07:32:12;10.40;99.90
831;DHT22;397;50.564;7.272;2022-10-19T07:34:40;10.80;99.90
831;DHT22;397;50.564;7.272;2022-10-19T07:37:07;10.70;99.90
831;DHT22;397;50.564;7.272;2022-10-19T07:39:36;11.00;99.90
831;DHT22;397;50.564;7.272;2022-10-19T07:42:03;11.20;99.90
831;DHT22;397;50.564;7.272;2022-10-19T07:44:31;11.50;99.90
831;DHT22;397;50.564;7.272;2022-10-19T07:46:58;11.70;99.90
831;DHT22;397;50.564;7.272;2022-10-19T07:49:26;11.70;99.90
831;DHT22;397;50.564;7.272;2022-10-19T07:51:53;11.80;99.90
831;DHT22;397;50.564;7.272;2022-10-19T07:54:21;12.10;99.90
831;DHT22;397;50.564;7.272;2022-10-19T07:56:49;12.50;99.90
831;DHT22;397;50.564;7.272;2022-10-19T07:59:17;12.80;99.90
831;DHT22;397;50.564;7.272;2022-10-19T08:01:44;12.90;99.90
831;DHT22;397;50.564;7.272;2022-10-19T08:04:15;12.90;99.90
831;DHT22;397;50.564;7.272;2022-10-19T08:06:43;13.00;99.90
831;DHT22;397;50.564;7.272;2022-10-19T08:09:10;13.20;99.90
831;DHT22;397;50.564;7.272;2022-10-19T08:11:38;13.30;99.90
831;DHT22;397;50.564;7.272;2022-10-19T08:14:05;13.20;99.90
831;DHT22;397;50.564;7.272;2022-10-19T08:16:35;13.30;99.90
831;DHT22;397;50.564;7.272;2022-10-19T08:19:13;13.50;99.90
831;DHT22;397;50.564;7.272;2022-10-19T08:21:43;13.70;99.90
831;DHT22;397;50.564;7.272;2022-10-19T08:24:13;13.60;99.90
831;DHT22;397;50.564;7.272;2022-10-19T08:26:41;13.10;99.90
831;DHT22;397;50.564;7.272;2022-10-19T08:29:19;13.10;99.90
831;DHT22;397;50.564;7.272;2022-10-19T08:31:48;13.00;99.90
831;DHT22;397;50.564;7.272;2022-10-19T08:34:16;12.80;99.90
831;DHT22;397;50.564;7.272;2022-10-19T08:36:43;13.30;99.90
831;DHT22;397;50.564;7.272;2022-10-19T08:39:12;13.30;99.90
831;DHT22;397;50.564;7.272;2022-10-19T08:41:49;13.30;99.90
831;DHT22;397;50.564;7.272;2022-10-19T08:49:59;13.60;99.90
831;DHT22;397;50.564;7.272;2022-10-19T08:52:31;13.80;99.90
831;DHT22;397;50.564;7.272;2022-10-19T08:55:21;13.80;99.90
831;DHT22;397;50.564;7.272;2022-10-19T09:03:12;14.10;99.90
831;DHT22;397;50.564;7.272;2022-10-19T09:05:47;14.30;99.90
831;DHT22;397;50.564;7.272;2022-10-19T09:08:16;14.40;99.90
831;DHT22;397;50.564;7.272;2022-10-19T09:10:46;14.20;99.90
831;DHT22;397;50.564;7.272;2022-10-19T09:13:39;14.30;99.90
831;DHT22;397;50.564;7.272;2022-10-19T09:15:52;14.40;99.90
831;DHT22;397;50.564;7.272;2022-10-19T09:18:22;14.40;99.90
831;DHT22;397;50.564;7.272;2022-10-19T09:21:08;14.50;99.90
831;DHT22;397;50.564;7.272;2022-10-19T09:26:30;14.60;99.90
831;DHT22;397;50.564;7.272;2022-10-19T09:29:11;14.60;99.90
831;DHT22;397;50.564;7.272;2022-10-19T09:31:38;14.60;99.90
831;DHT22;397;50.564;7.272;2022-10-19T09:34:14;14.60;99.90
831;DHT22;397;50.564;7.272;2022-10-19T09:36:44;14.60;99.90
831;DHT22;397;50.564;7.272;2022-10-19T09:39:12;14.60;99.90
831;DHT22;397;50.564;7.272;2022-10-19T09:41:52;14.50;99.90
831;DHT22;397;50.564;7.272;2022-10-19T09:44:25;14.50;99.90
831;DHT22;397;50.564;7.272;2022-10-19T09:49:47;14.60;99.90
831;DHT22;397;50.564;7.272;2022-10-19T09:55:06;14.60;99.90
831;DHT22;397;50.564;7.272;2022-10-19T09:57:40;14.50;99.90
831;DHT22;397;50.564;7.272;2022-10-19T10:00:05;14.50;99.90
831;DHT22;397;50.564;7.272;2022-10-19T10:02:33;14.70;99.90
831;DHT22;397;50.564;7.272;2022-10-19T10:05:06;14.60;99.90
831;DHT22;397;50.564;7.272;2022-10-19T10:07:37;14.60;99.90
831;DHT22;397;50.564;7.272;2022-10-19T10:10:17;14.60;99.90
831;DHT22;397;50.564;7.272;2022-10-19T10:12:39;14.70;99.90
831;DHT22;397;50.564;7.272;2022-10-19T10:15:07;14.90;99.90
831;DHT22;397;50.564;7.272;2022-10-19T10:17:35;14.70;99.90
831;DHT22;397;50.564;7.272;2022-10-19T10:20:15;14.60;99.90
831;DHT22;397;50.564;7.272;2022-10-19T10:22:35;14.60;99.90
831;DHT22;397;50.564;7.272;2022-10-19T10:25:11;14.70;99.90
831;DHT22;397;50.564;7.272;2022-10-19T10:27:39;14.80;99.90
831;DHT22;397;50.564;7.272;2022-10-19T10:30:15;14.80;99.90
831;DHT22;397;50.564;7.272;2022-10-19T10:32:46;14.90;99.90
831;DHT22;397;50.564;7.272;2022-10-19T10:35:17;15.00;99.90
831;DHT22;397;50.564;7.272;2022-10-19T10:37:47;14.90;99.90
831;DHT22;397;50.564;7.272;2022-10-19T10:40:29;14.90;99.90
831;DHT22;397;50.564;7.272;2022-10-19T10:43:07;14.90;99.90
831;DHT22;397;50.564;7.272;2022-10-19T10:45:41;15.00;99.90
831;DHT22;397;50.564;7.272;2022-10-19T10:48:36;15.10;99.90
831;DHT22;397;50.564;7.272;2022-10-19T10:51:49;15.00;99.90
831;DHT22;397;50.564;7.272;2022-10-19T10:53:39;15.10;99.90
831;DHT22;397;50.564;7.272;2022-10-19T10:56:27;15.30;99.90
831;DHT22;397;50.564;7.272;2022-10-19T10:58:57;15.30;99.90
831;DHT22;397;50.564;7.272;2022-10-19T11:01:34;15.40;99.90
831;DHT22;397;50.564;7.272;2022-10-19T11:04:09;15.40;99.90
831;DHT22;397;50.564;7.272;2022-10-19T11:06:34;15.50;99.90
831;DHT22;397;50.564;7.272;2022-10-19T11:09:08;15.40;99.90
831;DHT22;397;50.564;7.272;2022-10-19T11:11:43;15.40;99.90
831;DHT22;397;50.564;7.272;2022-10-19T11:14:46;15.40;99.90
831;DHT22;397;50.564;7.272;2022-10-19T11:17:20;15.40;99.90
831;DHT22;397;50.564;7.272;2022-10-19T11:19:48;15.50;99.90
831;DHT22;397;50.564;7.272;2022-10-19T11:22:41;15.40;99.90
831;DHT22;397;50.564;7.272;2022-10-19T11:25:27;15.50;99.90
831;DHT22;397;50.564;7.272;2022-10-19T11:30:36;15.40;99.90
831;DHT22;397;50.564;7.272;2022-10-19T11:35:51;15.30;99.90
831;DHT22;397;50.564;7.272;2022-10-19T11:38:31;15.40;99.90
831;DHT22;397;50.564;7.272;2022-10-19T11:44:14;15.50;99.90
831;DHT22;397;50.564;7.272;2022-10-19T11:52:25;15.60;99.90
831;DHT22;397;50.564;7.272;2022-10-19T11:58:14;15.60;99.90
831;DHT22;397;50.564;7.272;2022-10-19T12:00:48;15.60;99.90
831;DHT22;397;50.564;7.272;2022-10-19T12:03:47;15.60;99.90
831;DHT22;397;50.564;7.272;2022-10-19T12:14:39;15.80;99.90
831;DHT22;397;50.564;7.272;2022-10-19T12:17:17;15.80;99.90
831;DHT22;397;50.564;7.272;2022-10-19T12:19:46;15.90;99.90
831;DHT22;397;50.564;7.272;2022-10-19T12:22:22;15.90;99.90
831;DHT22;397;50.564;7.272;2022-10-19T12:24:52;15.80;99.90
831;DHT22;397;50.564;7.272;2022-10-19T12:27:33;15.90;99.90
831;DHT22;397;50.564;7.272;2022-10-19T12:30:04;15.80;99.90
831;DHT22;397;50.564;7.272;2022-10-19T12:32:36;15.90;99.90
831;DHT22;397;50.564;7.272;2022-10-19T12:37:59;16.00;99.90
831;DHT22;397;50.564;7.272;2022-10-19T12:40:31;16.00;99.90
831;DHT22;397;50.564;7.272;2022-10-19T12:45:39;15.80;99.90
831;DHT22;397;50.564;7.272;2022-10-19T12:53:40;15.90;99.90
831;DHT22;397;50.564;7.272;2022-10-19T12:56:12;16.00;99.90
831;DHT22;397;50.564;7.272;2022-10-19T12:58:47;16.10;99.90
831;DHT22;397;50.564;7.272;2022-10-19T13:01:25;16.10;99.90
831;DHT22;397;50.564;7.272;2022-10-19T13:06:42;16.10;99.90
831;DHT22;397;50.564;7.272;2022-10-19T13:09:08;16.10;99.90
831;DHT22;397;50.564;7.272;2022-10-19T13:11:38;16.10;99.90
831;DHT22;397;50.564;7.272;2022-10-19T13:17:07;16.10;99.90
831;DHT22;397;50.564;7.272;2022-10-19T13:19:35;16.20;99.90
831;DHT22;397;50.564;7.272;2022-10-19T13:27:53;16.20;99.90
831;DHT22;397;50.564;7.272;2022-10-19T13:38:40;16.30;99.90
831;DHT22;397;50.564;7.272;2022-10-19T13:41:23;16.30;99.90
831;DHT22;397;50.564;7.272;2022-10-19T13:44:18;16.30;99.90
831;DHT22;397;50.564;7.272;2022-10-19T13:47:04;16.30;99.90
831;DHT22;397;50.564;7.272;2022-10-19T13:49:40;16.30;99.90
831;DHT22;397;50.564;7.272;2022-10-19T13:58:09;16.30;99.90
831;DHT22;397;50.564;7.272;2022-10-19T14:00:46;16.30;99.90
831;DHT22;397;50.564;7.272;2022-10-19T14:08:56;16.30;99.90
831;DHT22;397;50.564;7.272;2022-10-19T14:11:35;16.30;99.90
831;DHT22;397;50.564;7.272;2022-10-19T14:19:23;16.30;99.90
831;DHT22;397;50.564;7.272;2022-10-19T14:21:56;16.30;99.90
831;DHT22;397;50.564;7.272;2022-10-19T14:24:34;16.30;99.90
831;DHT22;397;50.564;7.272;2022-10-19T14:27:06;16.40;99.90
831;DHT22;397;50.564;7.272;2022-10-19T14:29:42;16.40;99.90
831;DHT22;397;50.564;7.272;2022-10-19T14:32:04;16.40;99.90
831;DHT22;397;50.564;7.272;2022-10-19T14:34:32;16.40;99.90
831;DHT22;397;50.564;7.272;2022-10-19T14:36:59;16.30;99.90
831;DHT22;397;50.564;7.272;2022-10-19T14:39:30;16.30;99.90
831;DHT22;397;50.564;7.272;2022-10-19T14:42:07;16.30;99.90
831;DHT22;397;50.564;7.272;2022-10-19T14:44:39;16.30;99.90
831;DHT22;397;50.564;7.272;2022-10-19T14:47:18;16.30;99.90
831;DHT22;397;50.564;7.272;2022-10-19T14:49:46;16.30;99.90
831;DHT22;397;50.564;7.272;2022-10-19T14:52:24;16.30;99.90
831;DHT22;397;50.564;7.272;2022-10-19T14:54:49;16.30;99.90
831;DHT22;397;50.564;7.272;2022-10-19T14:57:25;16.20;99.90
831;DHT22;397;50.564;7.272;2022-10-19T14:59:58;16.20;99.90
831;DHT22;397;50.564;7.272;2022-10-19T15:02:31;16.10;99.90
831;DHT22;397;50.564;7.272;2022-10-19T15:05:02;16.10;99.90
831;DHT22;397;50.564;7.272;2022-10-19T15:07:35;16.10;99.90
831;DHT22;397;50.564;7.272;2022-10-19T15:10:06;16.10;99.90
831;DHT22;397;50.564;7.272;2022-10-19T15:12:38;16.10;99.90
831;DHT22;397;50.564;7.272;2022-10-19T15:15:12;16.10;99.90
831;DHT22;397;50.564;7.272;2022-10-19T15:17:47;16.00;99.90
831;DHT22;397;50.564;7.272;2022-10-19T15:20:28;16.00;99.90
831;DHT22;397;50.564;7.272;2022-10-19T15:22:57;16.00;99.90
831;DHT22;397;50.564;7.272;2022-10-19T15:25:33;16.00;99.90
831;DHT22;397;50.564;7.272;2022-10-19T15:28:20;16.00;99.90
831;DHT22;397;50.564;7.272;2022-10-19T15:30:58;16.10;99.90
831;DHT22;397;50.564;7.272;2022-10-19T15:33:27;16.00;99.90
831;DHT22;397;50.564;7.272;2022-10-19T15:36:09;16.10;99.90
831;DHT22;397;50.564;7.272;2022-10-19T15:38:46;16.00;99.90
831;DHT22;397;50.564;7.272;2022-10-19T15:41:23;15.90;99.90
831;DHT22;397;50.564;7.272;2022-10-19T15:43:52;15.90;99.90
831;DHT22;397;50.564;7.272;2022-10-19T15:48:53;15.90;99.90
831;DHT22;397;50.564;7.272;2022-10-19T15:51:30;15.80;99.90
831;DHT22;397;50.564;7.272;2022-10-19T15:53:59;15.70;99.90
831;DHT22;397;50.564;7.272;2022-10-19T15:56:29;15.70;99.90
831;DHT22;397;50.564;7.272;2022-10-19T15:58:59;15.60;99.90
831;DHT22;397;50.564;7.272;2022-10-19T16:01:30;15.60;99.90
831;DHT22;397;50.564;7.272;2022-10-19T16:03:58;15.50;99.90
831;DHT22;397;50.564;7.272;2022-10-19T16:06:28;15.50;99.90
831;DHT22;397;50.564;7.272;2022-10-19T16:08:57;15.40;99.90
831;DHT22;397;50.564;7.272;2022-10-19T16:11:26;15.40;99.90
831;DHT22;397;50.564;7.272;2022-10-19T16:13:54;15.40;99.90
831;DHT22;397;50.564;7.272;2022-10-19T16:16:24;15.30;99.90
831;DHT22;397;50.564;7.272;2022-10-19T16:18:52;15.30;99.90
831;DHT22;397;50.564;7.272;2022-10-19T16:21:22;15.30;99.90
831;DHT22;397;50.564;7.272;2022-10-19T16:23:49;15.20;99.90
831;DHT22;397;50.564;7.272;2022-10-19T16:26:17;15.20;99.90
831;DHT22;397;50.564;7.272;2022-10-19T16:28:44;15.20;99.90
831;DHT22;397;50.564;7.272;2022-10-19T16:31:14;15.20;99.90
831;DHT22;397;50.564;7.272;2022-10-19T16:33:42;15.20;99.90
831;DHT22;397;50.564;7.272;2022-10-19T16:36:10;15.10;99.90
831;DHT22;397;50.564;7.272;2022-10-19T16:38:38;15.10;99.90
831;DHT22;397;50.564;7.272;2022-10-19T16:41:08;15.10;99.90
831;DHT22;397;50.564;7.272;2022-10-19T16:43:36;15.00;99.90
831;DHT22;397;50.564;7.272;2022-10-19T16:46:04;15.00;99.90
831;DHT22;397;50.564;7.272;2022-10-19T16:48:32;15.10;99.90
831;DHT22;397;50.564;7.272;2022-10-19T16:53:37;15.00;99.90
831;DHT22;397;50.564;7.272;2022-10-19T16:56:11;14.90;99.90
831;DHT22;397;50.564;7.272;2022-10-19T16:58:36;15.00;99.90
831;DHT22;397;50.564;7.272;2022-10-19T17:01:11;14.90;99.90
831;DHT22;397;50.564;7.272;2022-10-19T17:03:39;14.90;99.90
831;DHT22;397;50.564;7.272;2022-10-19T17:06:07;14.90;99.90
831;DHT22;397;50.564;7.272;2022-10-19T17:08:35;14.90;99.90
831;DHT22;397;50.564;7.272;2022-10-19T17:11:18;14.90;99.90
831;DHT22;397;50.564;7.272;2022-10-19T17:13:47;14.90;99.90
831;DHT22;397;50.564;7.272;2022-10-19T17:16:16;14.90;99.90
831;DHT22;397;50.564;7.272;2022-10-19T17:18:44;14.80;99.90
831;DHT22;397;50.564;7.272;2022-10-19T17:21:20;14.90;99.90
831;DHT22;397;50.564;7.272;2022-10-19T17:23:52;14.90;99.90
831;DHT22;397;50.564;7.272;2022-10-19T17:26:34;14.80;99.90
831;DHT22;397;50.564;7.272;2022-10-19T17:28:56;14.80;99.90
831;DHT22;397;50.564;7.272;2022-10-19T17:31:24;14.80;99.90
831;DHT22;397;50.564;7.272;2022-10-19T17:33:52;14.80;99.90
831;DHT22;397;50.564;7.272;2022-10-19T17:36:25;14.80;99.90
831;DHT22;397;50.564;7.272;2022-10-19T17:38:55;14.80;99.90
831;DHT22;397;50.564;7.272;2022-10-19T17:41:24;14.80;99.90
831;DHT22;397;50.564;7.272;2022-10-19T17:43:52;14.80;99.90
831;DHT22;397;50.564;7.272;2022-10-19T17:46:25;14.80;99.90
831;DHT22;397;50.564;7.272;2022-10-19T17:48:53;14.70;99.90
831;DHT22;397;50.564;7.272;2022-10-19T17:51:23;14.70;99.90
831;DHT22;397;50.564;7.272;2022-10-19T17:53:54;14.80;99.90
831;DHT22;397;50.564;7.272;2022-10-19T17:56:23;14.70;99.90
831;DHT22;397;50.564;7.272;2022-10-19T17:58:50;14.70;99.90
831;DHT22;397;50.564;7.272;2022-10-19T18:01:19;14.70;99.90
831;DHT22;397;50.564;7.272;2022-10-19T18:03:47;14.80;99.90
831;DHT22;397;50.564;7.272;2022-10-19T18:06:23;14.70;99.90
831;DHT22;397;50.564;7.272;2022-10-19T18:08:53;14.80;99.90
831;DHT22;397;50.564;7.272;2022-10-19T18:11:23;14.70;99.90
831;DHT22;397;50.564;7.272;2022-10-19T18:13:53;14.70;99.90
831;DHT22;397;50.564;7.272;2022-10-19T18:16:23;14.70;99.90
831;DHT22;397;50.564;7.272;2022-10-19T18:18:53;14.70;99.90
831;DHT22;397;50.564;7.272;2022-10-19T18:21:24;14.70;99.90
831;DHT22;397;50.564;7.272;2022-10-19T18:23:54;14.70;99.90
831;DHT22;397;50.564;7.272;2022-10-19T18:26:23;14.70;99.90
831;DHT22;397;50.564;7.272;2022-10-19T18:28:53;14.70;99.90
831;DHT22;397;50.564;7.272;2022-10-19T18:31:23;14.70;99.90
831;DHT22;397;50.564;7.272;2022-10-19T18:34:02;14.70;99.90
831;DHT22;397;50.564;7.272;2022-10-19T18:36:31;14.70;99.90
831;DHT22;397;50.564;7.272;2022-10-19T18:39:00;14.50;99.90
831;DHT22;397;50.564;7.272;2022-10-19T18:41:28;14.50;99.90
831;DHT22;397;50.564;7.272;2022-10-19T18:44:01;14.60;99.90
831;DHT22;397;50.564;7.272;2022-10-19T18:46:32;14.50;99.90